Latest Weather Observations for Bourke

IDN60801

Issued at 1:32 pm EDT Thursday 24 October 2019 (issued every 10 minutes, with the page automatically refreshed every 10 minutes)

About weather observations | Map of weather stations | Latest weather observations for NSW | Other Formats
Station Details ID: 048245 Name: BOURKE AIRPORT AWS Lat: -30.04 Lon: 145.95 Height: 107.3 m
Data from the previous 72 hours. | See also: Recent months at Bourke
Date/Time
EDT
Temp
°C
App
Temp
°C
Dew
Point
°C
Rel
Hum
%
Delta-T
°C
Wind Press
QNH
hPa
Press
MSL
hPa
Rain since
9am
mm
Dir  Spd
km/h
Gust
km/h
Spd
kts
Gust
kts
24/01:30pm 35.3 30.9 0.4 11 17.4 NNE 13 26 7 14 1015.3 1014.9 0.0
24/01:00pm 34.5 28.7 -0.2 11 17.1 NE 20 35 11 19 1015.9 1015.5 0.0
24/12:30pm 34.2 28.5 0.8 12 16.7 N 20 33 11 18 1016.3 1015.9 0.0
24/12:00pm 33.4 28.8 1.3 13 16.1 NNW 15 28 8 15 1016.9 1016.5 0.0
24/11:30am 33.5 27.9 1.3 13 16.2 N 20 28 11 15 1017.1 1016.7 0.0
24/11:00am 32.9 27.0 1.9 14 15.6 N 22 35 12 19 1017.4 1017.1 0.0
24/10:30am 32.2 25.9 1.3 14 15.4 N 24 32 13 17 1017.5 1017.2 0.0
24/10:00am 31.7 25.8 1.9 15 14.9 N 22 30 12 16 1017.7 1017.4 0.0
24/09:30am 29.3 24.4 1.7 17 13.6 N 17 22 9 12 1017.7 1017.4 0.0
24/09:00am 26.9 21.9 1.3 19 12.3 N 17 20 9 11 1017.7 1017.4 0.0
24/08:30am 25.3 20.7 1.4 21 11.4 NNE 15 20 8 11 1017.6 1017.3 0.0
24/08:00am 23.2 19.3 0.9 23 10.3 NE 11 15 6 8 1017.3 1016.9 0.0
24/07:30am 21.1 17.6 1.4 27 9.1 NE 9 11 5 6 1017.0 1016.6 0.0
24/07:00am 17.4 13.3 -0.3 30 7.6 NE 11 11 6 6 1016.7 1016.3 0.0
24/06:30am 16.7 12.4 -1.4 29 7.6 NE 11 13 6 7 1016.3 1015.9 0.0
24/06:00am 17.5 12.9 -1.2 28 7.9 NE 13 13 7 7 1016.0 1015.6 0.0
24/05:30am 18.0 13.4 -1.3 27 8.2 NE 13 15 7 8 1015.8 1015.4 0.0
24/05:00am 18.2 13.5 -1.6 26 8.4 NE 13 13 7 7 1015.7 1015.3 0.0
24/04:30am 20.3 15.9 0.2 26 9.0 NE 13 15 7 8 1015.5 1015.1 0.0
24/04:00am 19.8 15.6 -0.8 25 9.0 NE 11 13 6 7 1015.6 1015.2 0.0
24/03:30am 21.0 16.4 -0.9 23 9.6 NE 13 15 7 8 1015.7 1015.3 0.0
24/03:00am 21.5 16.5 -1.1 22 9.9 ENE 15 19 8 10 1015.9 1015.5 0.0
24/02:30am 20.1 15.8 -1.7 23 9.4 ENE 11 15 6 8 1016.1 1015.7 0.0
24/02:00am 20.2 15.8 -2.2 22 9.5 NE 11 13 6 7 1016.5 1016.1 0.0
24/01:30am 20.5 16.5 -2.5 21 9.8 ENE 9 11 5 6 1016.7 1016.3 0.0
24/01:00am 22.7 18.1 -0.7 21 10.5 ENE 13 15 7 8 1017.0 1016.6 0.0
24/12:30am 22.0 17.4 -1.3 21 10.3 E 13 15 7 8 1017.0 1016.6 0.0
24/12:00am 22.2 17.9 -1.8 20 10.5 ENE 11 11 6 6 1017.2 1016.8 0.0
 
Date/Time
EDT
Temp
°C
App
Temp
°C
Dew
Point
°C
Rel
Hum
%
Delta-T
°C
Wind Press
QNH
hPa
Press
MSL
hPa
Rain since
9am
mm
Dir  Spd
km/h
Gust
km/h
Spd
kts
Gust
kts
23/11:30pm 22.4 18.4 -2.3 19 10.7 E 9 11 5 6 1017.3 1016.9 0.0
23/11:00pm 23.5 19.1 -2.2 18 11.2 ENE 11 13 6 7 1017.4 1017.1 0.0
23/10:30pm 23.7 19.4 -2.0 18 11.3 ENE 11 13 6 7 1017.5 1017.2 0.0
23/10:00pm 24.8 20.5 -1.9 17 11.9 E 11 13 6 7 1017.4 1017.1 0.0
23/09:30pm 25.0 21.1 -1.7 17 12.0 E 9 11 5 6 1017.3 1016.9 0.0
23/09:00pm 25.6 21.6 -2.1 16 12.4 E 9 11 5 6 1017.0 1016.6 0.0
23/08:30pm 26.0 22.0 -2.6 15 12.7 E 9 11 5 6 1016.6 1016.2 0.0
23/08:00pm 28.0 24.0 -2.0 14 13.7 E 9 11 5 6 1016.4 1016.0 0.0
23/07:30pm 29.9 26.4 -1.5 13 14.7 E 7 11 4 6 1016.2 1015.8 0.0
23/07:00pm 31.8 28.0 -1.1 12 15.7 E 9 13 5 7 1016.0 1015.6 0.0
23/06:30pm 32.4 28.2 -0.6 12 15.9 SE 11 20 6 11 1015.9 1015.5 0.0
23/06:00pm 32.9 29.4 -1.4 11 16.4 NE 7 17 4 9 1015.8 1015.4 0.0
23/05:30pm 33.2 27.8 -1.2 11 16.5 SE 17 26 9 14 1015.9 1015.5 0.0
23/05:00pm 33.1 29.8 -0.1 12 16.2 NNE 7 13 4 7 1015.9 1015.5 0.0
23/04:30pm 32.0 28.6 -0.9 12 15.8 NNE 7 15 4 8 1016.2 1015.8 0.0
23/04:00pm 32.7 28.2 -0.4 12 16.0 NE 13 20 7 11 1016.5 1016.1 0.0
23/03:30pm 34.0 29.8 -0.6 11 16.9 SE 11 20 6 11 1016.9 1016.5 0.0
23/03:00pm 32.2 28.0 -0.8 12 15.8 ESE 11 15 6 8 1017.3 1016.9 0.0
23/02:30pm 32.7 28.6 -0.4 12 16.1 N 11 17 6 9 1017.7 1017.4 0.0
23/02:00pm 32.8 29.1 -0.3 12 16.1 WSW 9 26 5 14 1018.1 1017.8 0.0
23/01:30pm 32.8 28.3 -0.3 12 16.1 E 13 20 7 11 1018.5 1018.2 0.0
23/01:00pm 33.1 29.8 -0.1 12 16.2 SSW 7 13 4 7 1019.0 1018.7 0.0
23/12:30pm 33.0 29.3 -0.2 12 16.2 ENE 9 24 5 13 1019.5 1019.1 0.0
23/12:00pm 31.7 26.5 -0.1 13 15.4 NE 17 24 9 13 1020.0 1019.6 0.0
23/11:30am 31.8 27.0 0.0 13 15.4 N 15 26 8 14 1020.4 1020.0 0.0
23/11:00am 31.7 26.3 1.0 14 15.1 N 19 24 10 13 1020.7 1020.3 0.0
23/10:30am 31.1 25.4 0.5 14 14.9 N 20 30 11 16 1021.0 1020.6 0.0
23/10:00am 30.4 24.8 0.9 15 14.4 N 20 30 11 16 1021.1 1020.7 0.0
23/09:30am 29.3 23.7 0.9 16 13.8 NNE 20 26 11 14 1021.1 1020.7 0.0
23/09:00am 28.0 23.8 1.5 18 12.8 NE 13 19 7 10 1021.0 1020.6 0.0
23/08:30am 25.8 21.6 1.8 21 11.5 N 13 20 7 11 1020.8 1020.4 0.0
23/08:00am 22.5 18.6 0.9 24 9.9 NNE 11 17 6 9 1020.5 1020.1 0.0
23/07:30am 19.4 15.7 -0.1 27 8.6 N 9 13 5 7 1020.2 1019.8 0.0
23/07:00am 18.1 13.6 -0.2 29 7.9 N 13 13 7 7 1020.0 1019.6 0.0
23/06:30am 16.7 12.5 -0.9 30 7.4 NNE 11 11 6 6 1019.5 1019.1 0.0
23/06:00am 16.3 12.5 -0.8 31 7.2 NE 9 11 5 6 1019.3 1018.9 0.0
23/05:30am 16.7 12.7 -2.4 27 7.8 ENE 9 9 5 5 1019.1 1018.8 0.0
23/05:00am 18.4 15.1 0.1 29 8.0 E 7 9 4 5 1018.9 1018.6 0.0
23/04:30am 19.1 15.1 0.2 28 8.4 NE 11 11 6 6 1018.6 1018.3 0.0
23/04:00am 18.4 15.0 -0.9 27 8.3 ENE 7 9 4 5 1018.5 1018.2 0.0
23/03:30am 18.9 15.1 -0.5 27 8.4 NE 9 11 5 6 1018.5 1018.2 0.0
23/03:00am 18.8 14.3 -0.6 27 8.4 NE 13 15 7 8 1018.6 1018.3 0.0
23/02:30am 18.7 14.8 -1.2 26 8.5 ENE 9 11 5 6 1018.7 1018.4 0.0
23/02:00am 19.0 14.7 -1.4 25 8.7 NE 11 13 6 7 1018.9 1018.6 0.0
23/01:30am 20.1 15.9 -1.1 24 9.2 NE 11 11 6 6 1019.3 1018.9 0.0
23/01:00am 21.5 17.8 0.1 24 9.6 ENE 9 13 5 7 1019.4 1019.0 0.0
23/12:30am 21.3 17.9 -0.6 23 9.7 ENE 7 9 4 5 1019.6 1019.2 0.0
23/12:00am 22.9 18.8 0.1 22 10.4 ENE 11 13 6 7 1019.7 1019.3 0.0
 
Date/Time
EDT
Temp
°C
App
Temp
°C
Dew
Point
°C
Rel
Hum
%
Delta-T
°C
Wind Press
QNH
hPa
Press
MSL
hPa
Rain since
9am
mm
Dir  Spd
km/h
Gust
km/h
Spd
kts
Gust
kts
22/11:30pm 23.0 19.2 -0.5 21 10.6 ENE 9 11 5 6 1019.8 1019.4 0.0
22/11:00pm 23.9 19.5 0.3 21 10.9 NE 13 15 7 8 1019.6 1019.2 0.0
22/10:30pm 24.3 19.7 -0.8 19 11.4 ENE 13 15 7 8 1019.6 1019.2 0.0
22/10:00pm 25.1 20.9 -0.9 18 11.8 E 11 13 6 7 1019.6 1019.2 0.0
22/09:30pm 25.3 20.7 -0.7 18 11.9 E 13 15 7 8 1019.5 1019.1 0.0
22/09:00pm 24.8 21.0 -1.1 18 11.7 E 9 11 5 6 1019.4 1019.0 0.0
22/08:30pm 24.9 20.7 -3.5 15 12.3 ESE 9 11 5 6 1019.3 1018.9 0.0
22/08:00pm 27.1 23.2 -1.7 15 13.1 SE 9 9 5 5 1019.0 1018.7 0.0
22/07:30pm 29.0 25.5 -1.2 14 14.1 ENE 7 9 4 5 1018.8 1018.5 0.0
22/07:00pm 30.3 27.4 -1.2 13 14.8 NE 4 13 2 7 1018.5 1018.2 0.0
22/06:30pm 31.5 28.7 -0.2 13 15.3 NNE 4 13 2 7 1018.2 1017.9 0.0
22/06:00pm 31.6 27.4 -1.2 12 15.6 E 11 20 6 11 1018.1 1017.8 0.0
22/05:30pm 32.3 27.7 -0.7 12 15.9 ESE 13 20 7 11 1017.9 1017.6 0.0
22/05:00pm 32.0 28.3 0.2 13 15.5 SSW 9 13 5 7 1017.9 1017.6 0.0
22/04:30pm 31.8 28.0 -1.1 12 15.7 SE 9 20 5 11 1018.1 1017.8 0.0
22/04:00pm 31.8 27.3 0.0 13 15.4 S 13 20 7 11 1018.5 1018.2 0.0
22/03:30pm 31.8 28.5 0.0 13 15.4 ESE 7 15 4 8 1018.8 1018.5 0.0
22/03:00pm 31.4 26.9 -0.3 13 15.2 E 13 24 7 13 1019.5 1019.1 0.0
22/02:30pm 31.2 26.7 -0.5 13 15.2 E 13 33 7 18 1020.0 1019.6 0.0
22/02:00pm 30.8 26.0 0.2 14 14.8 ESE 15 24 8 13 1020.5 1020.1 0.0
22/01:30pm 30.5 26.8 0.0 14 14.7 NW 9 19 5 10 1020.9 1020.5 0.0
22/01:00pm 30.5 26.0 0.0 14 14.6 ESE 13 32 7 17 1021.3 1020.9 0.0
22/12:30pm 30.3 26.2 -0.1 14 14.6 NNW 11 20 6 11 1021.8 1021.4 0.0
22/12:00pm 29.7 25.3 0.3 15 14.1 NNE 13 19 7 10 1022.2 1021.8 0.0
22/11:30am 30.3 25.6 0.8 15 14.4 NE 15 30 8 16 1022.6 1022.2 0.0
22/11:00am 28.5 22.6 -0.6 15 13.6 ENE 20 28 11 15 1023.0 1022.6 0.0
22/10:30am 28.0 21.7 -1.0 15 13.5 NE 22 32 12 17 1023.2 1022.8 0.0
22/10:00am 27.3 20.5 -1.6 15 13.2 ENE 24 30 13 16 1023.2 1022.8 0.0
22/09:30am 25.7 18.6 -1.2 17 12.2 ENE 26 32 14 17 1023.2 1022.8 0.0
22/09:00am 24.3 18.2 0.6 21 11.0 ENE 22 30 12 16 1023.1 1022.7 0.0
22/08:30am 22.8 17.4 1.2 24 10.0 E 19 24 10 13 1023.0 1022.6 0.0
22/08:00am 21.3 15.6 0.5 25 9.4 E 20 28 11 15 1022.7 1022.3 0.0
22/07:30am 19.4 14.9 -0.6 26 8.7 E 13 15 7 8 1022.3 1021.9 0.0
22/07:00am 16.9 13.0 -1.2 29 7.6 E 9 11 5 6 1022.1 1021.7 0.0
22/06:30am 17.4 13.2 -0.8 29 7.8 E 11 13 6 7 1021.6 1021.2 0.0
22/06:00am 16.6 11.9 -1.5 29 7.5 ESE 13 13 7 7 1021.3 1020.9 0.0
22/05:30am 16.2 11.9 -1.4 30 7.3 E 11 13 6 7 1021.1 1020.7 0.0
22/05:00am 14.6 9.9 -4.7 26 7.3 E 11 11 6 6 1020.9 1020.5 0.0
22/04:30am 14.6 10.7 -4.2 27 7.3 E 7 9 4 5 1020.9 1020.5 0.0
22/04:00am 14.1 9.8 -5.1 26 7.2 ESE 9 9 5 5 1020.9 1020.5 0.0
22/03:30am 14.0 9.4 -7.9 21 7.7 ESE 9 11 5 6 1021.0 1020.6 0.0
22/03:00am 14.0 9.9 -9.2 19 7.9 SE 6 7 3 4 1021.3 1020.9 0.0
22/02:30am 15.1 11.1 -5.9 23 7.8 SE 7 9 4 5 1021.4 1021.0 0.0
22/02:00am 14.9 10.7 -3.9 27 7.3 ESE 9 11 5 6 1021.5 1021.1 0.0
22/01:30am 15.1 11.2 -7.0 21 8.1 ESE 6 7 3 4 1021.8 1021.4 0.0
22/01:00am 14.8 10.9 -6.7 22 7.8 ESE 6 7 3 4 1022.0 1021.6 0.0
22/12:30am 15.5 11.5 -8.0 19 8.4 ESE 6 7 3 4 1022.1 1021.7 0.0
22/12:00am 15.8 12.5 -8.4 18 8.6 ESE 2 6 1 3 1022.2 1021.8 0.0
 
Date/Time
EDT
Temp
°C
App
Temp
°C
Dew
Point
°C
Rel
Hum
%
Delta-T
°C
Wind Press
QNH
hPa
Press
MSL
hPa
Rain since
9am
mm
Dir  Spd
km/h
Gust
km/h
Spd
kts
Gust
kts
21/11:30pm 16.5 12.4 -8.6 17 9.0 ESE 6 6 3 3 1022.1 1021.7 0.0
21/11:00pm 17.2 13.4 -9.6 15 9.4 ESE 4 7 2 4 1022.1 1021.7 0.0
21/10:30pm 18.6 14.3 -8.5 15 10.0 ESE 7 11 4 6 1022.1 1021.7 0.0
21/10:00pm 19.1 14.9 -7.3 16 10.0 E 7 7 4 4 1022.0 1021.6 0.0
21/09:30pm 20.0 15.8 -8.3 14 10.6 E 7 7 4 4 1021.8 1021.4 0.0
21/09:00pm 21.9 17.4 -6.8 14 11.3 E 9 9 5 5 1021.5 1021.1 0.0
21/08:30pm 23.0 18.5 -6.9 13 11.9 E 9 11 5 6 1021.4 1021.0 0.0
21/08:00pm 24.7 20.1 -7.7 11 12.9 E 9 9 5 5 1021.1 1020.7 0.0
21/07:30pm 26.6 22.0 -7.5 10 13.9 ESE 9 9 5 5 1020.8 1020.4 0.0
21/07:00pm 28.6 23.4 -6.0 10 14.7 SSE 13 20 7 11 1020.6 1020.2 0.0
21/06:30pm 29.2 24.8 -5.5 10 15.0 E 9 15 5 8 1020.3 1019.9 0.0
21/06:00pm 29.5 25.4 -6.7 9 15.3 ESE 7 19 4 10 1020.2 1019.8 0.0
21/05:30pm 29.2 24.5 -5.5 10 15.0 ENE 11 17 6 9 1020.2 1019.8 0.0
21/05:00pm 29.3 24.6 -5.4 10 15.0 SSE 11 20 6 11 1020.3 1019.9 0.0
21/04:30pm 28.9 24.6 -4.5 11 14.7 SSE 9 17 5 9 1020.4 1020.0 0.0
21/04:00pm 28.7 24.8 -4.6 11 14.5 SSE 7 22 4 12 1020.6 1020.2 0.0
21/03:30pm 28.7 24.0 -4.6 11 14.6 ENE 11 19 6 10 1021.0 1020.6 0.0
21/03:00pm 28.7 24.0 -4.6 11 14.5 SSW 11 20 6 11 1021.6 1021.2 0.0
21/02:30pm 27.8 23.8 -5.3 11 14.2 SE 7 15 4 8 1022.2 1021.8 0.0
21/02:00pm 27.2 22.2 -4.6 12 13.7 E 13 22 7 12 1022.6 1022.2 0.0

Other formats

Comma delimited format used in spreadsheet applications
http://www.bom.gov.au/fwo/IDN60801/IDN60801.94703.axf

JavaScript Object Notation format (JSON) in row-major order
http://www.bom.gov.au/fwo/IDN60801/IDN60801.94703.json

Data quality

Most of these data are generated automatically and are frequently updated. Quality checks on data are not normally performed. It is possible for incorrect values to appear. Refer to information at About Latest Weather Observations and please check the disclaimer before using these data.